Time;durP1;ratioP1;P1;durP2;ratioP2;P2;SDS_P1;SDS_P2;PMS_P1;PMS_P2;Temp;Humidity;BMP_temperature;BMP_pressure;BME280_temperature;BME280_humidity;BME280_pressure;Samples;Min_cycle;Max_cycle;Signal;HPM_P1;HPM_P2
2021/07/03 00:00:07;;;;;;;10.27;6.65;;;;;;;-146.52;100.00;63329.72;1002399;29;20054;-84
2021/07/03 00:00:40;;;;;;;12.15;7.80;;;;;;;-146.52;100.00;63329.72;1006367;29;20026;-85
2021/07/03 00:01:12;;;;;;;13.73;7.00;;;;;;;-146.52;100.00;63329.72;1006126;29;20041;-84
2021/07/03 00:01:47;;;;;;;11.35;7.32;;;;;;;-146.52;100.00;63329.72;1002605;29;20036;-84
2021/07/03 00:02:21;;;;;;;11.48;6.95;;;;;;;-146.52;100.00;63329.72;1005904;29;20058;-83
2021/07/03 00:02:53;;;;;;;10.65;7.65;;;;;;;-146.52;100.00;63329.72;1009687;29;20032;-84
2021/07/03 00:03:27;;;;;;;11.48;7.15;;;;;;;-146.52;100.00;63329.72;1009626;29;20026;-84
2021/07/03 00:04:00;;;;;;;9.93;7.13;;;;;;;-146.52;100.00;63329.72;998292;29;20031;-83
2021/07/03 00:04:34;;;;;;;11.63;7.53;;;;;;;-146.52;100.00;63329.72;1005890;29;20030;-82
2021/07/03 00:05:05;;;;;;;11.07;7.35;;;;;;;-146.52;100.00;63329.72;1006037;29;20079;-82
2021/07/03 00:05:37;;;;;;;10.05;6.95;;;;;;;-146.52;100.00;63329.72;1005626;29;20054;-83
2021/07/03 00:06:07;;;;;;;11.00;7.70;;;;;;;-146.52;100.00;63329.72;1005756;29;20033;-83
2021/07/03 00:06:38;;;;;;;11.57;7.75;;;;;;;-146.52;100.00;63329.72;1012093;29;20050;-83
2021/07/03 00:07:09;;;;;;;9.93;7.68;;;;;;;-146.52;100.00;63329.72;1009142;29;20079;-82
2021/07/03 00:07:39;;;;;;;9.82;7.05;;;;;;;-146.52;100.00;63329.72;1005504;29;20036;-82
2021/07/03 00:08:10;;;;;;;11.60;7.60;;;;;;;-146.52;100.00;63329.72;1001526;29;20034;-83
2021/07/03 00:08:41;;;;;;;9.55;7.30;;;;;;;-146.52;100.00;63329.72;1009498;29;20085;-84
2021/07/03 00:09:11;;;;;;;10.77;7.00;;;;;;;-146.52;100.00;63329.72;1013360;29;20479;-84
2021/07/03 00:09:42;;;;;;;12.15;8.77;;;;;;;-146.52;100.00;63329.72;1005734;29;20029;-83
2021/07/03 00:10:12;;;;;;;11.10;6.65;;;;;;;-146.52;100.00;63329.72;1013211;29;20057;-84
2021/07/03 00:10:43;;;;;;;11.68;7.30;;;;;;;-146.52;100.00;63329.72;1001828;29;20050;-83
2021/07/03 00:11:14;;;;;;;11.02;7.93;;;;;;;-146.52;100.00;63329.72;1005618;29;20029;-82
2021/07/03 00:11:45;;;;;;;10.02;7.55;;;;;;;-146.52;100.00;63329.72;1008849;29;20559;-82
2021/07/03 00:12:16;;;;;;;11.02;7.38;;;;;;;-146.52;100.00;63329.72;1005016;29;20059;-87
2021/07/03 00:12:46;;;;;;;13.95;7.65;;;;;;;-146.52;100.00;63329.72;1005375;29;20186;-83
2021/07/03 00:13:17;;;;;;;12.20;7.78;;;;;;;-146.52;100.00;63329.72;1005374;29;20101;-82
2021/07/03 00:13:47;;;;;;;10.95;7.50;;;;;;;-146.52;100.00;63329.72;1009070;29;20030;-83
2021/07/03 00:14:18;;;;;;;11.07;7.93;;;;;;;-146.52;100.00;63329.72;1004938;29;20120;-82
2021/07/03 00:14:49;;;;;;;11.35;7.35;;;;;;;-146.52;100.00;63329.72;1005090;29;20354;-83
2021/07/03 00:15:21;;;;;;;10.55;7.90;;;;;;;-146.52;100.00;63329.72;1005374;29;20018;-84
2021/07/03 00:15:52;;;;;;;11.77;7.22;;;;;;;-146.52;100.00;63329.72;1001502;29;20039;-84
2021/07/03 00:16:23;;;;;;;11.77;7.63;;;;;;;-146.52;100.00;63329.72;1000831;29;20042;-84
2021/07/03 00:16:53;;;;;;;11.95;7.60;;;;;;;-146.52;100.00;63329.72;1001391;29;20030;-85
2021/07/03 00:17:24;;;;;;;12.40;7.68;;;;;;;-146.52;100.00;63329.72;1005299;29;20026;-82
2021/07/03 00:17:55;;;;;;;10.98;8.18;;;;;;;-146.52;100.00;63329.72;997760;29;20034;-84
2021/07/03 00:18:25;;;;;;;10.75;7.45;;;;;;;-146.52;100.00;63329.72;1005609;29;20056;-82
2021/07/03 00:18:56;;;;;;;9.40;7.60;;;;;;;-146.52;100.00;63329.72;1005288;29;20032;-83
2021/07/03 00:19:27;;;;;;;12.00;7.72;;;;;;;-146.52;100.00;63329.72;1001546;29;20030;-82
2021/07/03 00:19:57;;;;;;;9.85;7.25;;;;;;;-146.52;100.00;63329.72;1005300;29;20123;-83
2021/07/03 00:20:28;;;;;;;11.05;7.03;;;;;;;-146.52;100.00;63329.72;1001452;29;20041;-85
2021/07/03 00:20:58;;;;;;;17.90;8.27;;;;;;;-146.52;100.00;63329.72;1004843;29;20097;-83
2021/07/03 00:21:29;;;;;;;11.43;7.78;;;;;;;-146.52;100.00;63329.72;1005053;29;20021;-82
2021/07/03 00:22:00;;;;;;;8.82;6.70;;;;;;;-146.52;100.00;63329.72;1005221;29;20208;-82
2021/07/03 00:22:30;;;;;;;9.52;7.15;;;;;;;-146.52;100.00;63329.72;1005034;29;20022;-83
2021/07/03 00:23:01;;;;;;;12.32;7.47;;;;;;;-146.52;100.00;63329.72;1000855;29;20051;-84
2021/07/03 00:23:32;;;;;;;10.40;6.90;;;;;;;-146.52;100.00;63329.72;1005008;29;20026;-83
2021/07/03 00:24:03;;;;;;;8.52;6.97;;;;;;;-146.52;100.00;63329.72;1012429;29;20049;-82
2021/07/03 00:24:34;;;;;;;10.57;7.28;;;;;;;-146.52;100.00;63329.72;1001105;29;20047;-83
2021/07/03 00:25:05;;;;;;;12.25;7.32;;;;;;;-146.52;100.00;63329.72;1009117;29;20077;-83
2021/07/03 00:25:36;;;;;;;9.77;7.95;;;;;;;-146.52;100.00;63329.72;1005319;29;20052;-83
2021/07/03 00:26:06;;;;;;;12.75;8.32;;;;;;;-146.52;100.00;63329.72;1001465;29;20056;-82
2021/07/03 00:26:37;;;;;;;10.38;7.30;;;;;;;-146.52;100.00;63329.72;1005476;29;20070;-82
2021/07/03 00:27:08;;;;;;;9.93;7.30;;;;;;;-146.52;100.00;63329.72;1005315;29;20014;-83
2021/07/03 00:27:40;;;;;;;9.00;7.68;;;;;;;-146.52;100.00;63329.72;1005582;29;20018;-83
2021/07/03 00:28:11;;;;;;;11.45;7.97;;;;;;;-146.52;100.00;63329.72;1005407;29;20018;-82
2021/07/03 00:28:43;;;;;;;12.35;7.32;;;;;;;-146.52;100.00;63329.72;1005441;29;20026;-83
2021/07/03 00:29:14;;;;;;;13.07;8.00;;;;;;;-146.52;100.00;63329.72;1013066;29;20017;-83
2021/07/03 00:29:45;;;;;;;8.82;7.18;;;;;;;-146.52;100.00;63329.72;997526;29;20010;-83
2021/07/03 00:30:18;;;;;;;12.23;7.55;;;;;;;-146.52;100.00;63329.72;1001870;29;20002;-83
2021/07/03 00:30:50;;;;;;;12.85;7.65;;;;;;;-146.52;100.00;63329.72;1005829;29;20073;-83
2021/07/03 00:31:22;;;;;;;9.05;6.95;;;;;;;-146.52;100.00;63329.72;1002083;29;20019;-82
2021/07/03 00:31:53;;;;;;;11.57;7.70;;;;;;;-146.52;100.00;63329.72;1009827;29;20029;-84
2021/07/03 00:32:26;;;;;;;9.98;7.50;;;;;;;-146.52;100.00;63329.72;1002256;29;20011;-82
2021/07/03 00:32:59;;;;;;;9.85;7.03;;;;;;;-146.52;100.00;63329.72;1009668;29;20017;-82
2021/07/03 00:33:32;;;;;;;10.38;7.85;;;;;;;-146.52;100.00;63329.72;1005984;29;20014;-82
2021/07/03 00:34:04;;;;;;;11.27;7.93;;;;;;;-146.52;100.00;63329.72;1006131;29;20022;-83
2021/07/03 00:34:35;;;;;;;10.88;8.02;;;;;;;-146.52;100.00;63329.72;1013626;29;20013;-85
2021/07/03 00:35:07;;;;;;;10.27;7.53;;;;;;;-146.52;100.00;63329.72;1010109;29;20024;-84
2021/07/03 00:35:39;;;;;;;9.63;7.43;;;;;;;-146.52;100.00;63329.72;998520;29;20137;-82
2021/07/03 00:36:10;;;;;;;11.50;7.72;;;;;;;-146.52;100.00;63329.72;1006217;29;20017;-85
2021/07/03 00:36:42;;;;;;;11.32;8.13;;;;;;;-146.52;100.00;63329.72;1010024;29;20022;-83
2021/07/03 00:37:15;;;;;;;12.18;7.63;;;;;;;-146.52;100.00;63329.72;1002384;29;20010;-83
2021/07/03 00:37:48;;;;;;;11.10;7.38;;;;;;;-146.52;100.00;63329.72;1010075;29;20106;-83
2021/07/03 00:38:19;;;;;;;9.73;7.13;;;;;;;-146.52;100.00;63329.72;1010073;29;20025;-83
2021/07/03 00:38:52;;;;;;;12.27;8.07;;;;;;;-146.52;100.00;63329.72;1006320;29;20077;-83
2021/07/03 00:39:23;;;;;;;9.88;6.90;;;;;;;-146.52;100.00;63329.72;1006272;29;20010;-82
2021/07/03 00:39:55;;;;;;;9.13;6.88;;;;;;;-146.52;100.00;63329.72;1006051;29;20038;-83
2021/07/03 00:40:28;;;;;;;11.75;7.75;;;;;;;-146.52;100.00;63329.72;1010651;29;20022;-84
2021/07/03 00:41:00;;;;;;;9.65;7.22;;;;;;;-146.52;100.00;63329.72;1009006;29;20005;-86
2021/07/03 00:41:32;;;;;;;11.75;7.45;;;;;;;-146.52;100.00;63329.72;1006225;29;20051;-85
2021/07/03 00:42:03;;;;;;;11.70;7.53;;;;;;;-146.52;100.00;63329.72;1013807;29;20009;-82
2021/07/03 00:42:36;;;;;;;10.85;8.20;;;;;;;-146.52;100.00;63329.72;1009557;29;20014;-84
2021/07/03 00:43:07;;;;;;;10.05;7.00;;;;;;;-146.52;100.00;63329.72;1009362;29;20474;-84
2021/07/03 00:43:39;;;;;;;9.57;7.35;;;;;;;-146.52;100.00;63329.72;1001569;29;20441;-83
2021/07/03 00:44:10;;;;;;;11.05;7.13;;;;;;;-146.52;100.00;63329.72;1005720;29;20022;-83
2021/07/03 00:44:41;;;;;;;9.30;6.78;;;;;;;-146.52;100.00;63329.72;1005703;29;20021;-83
2021/07/03 00:45:13;;;;;;;11.40;8.35;;;;;;;-146.52;100.00;63329.72;1005782;29;20412;-83
2021/07/03 00:45:44;;;;;;;12.73;7.57;;;;;;;-146.52;100.00;63329.72;1013491;29;20005;-84
2021/07/03 00:46:15;;;;;;;11.23;7.03;;;;;;;-146.52;100.00;63329.72;1005576;29;20041;-84
2021/07/03 00:46:46;;;;;;;10.00;6.97;;;;;;;-146.52;100.00;63329.72;1009599;29;20021;-84
2021/07/03 00:47:17;;;;;;;9.70;6.68;;;;;;;-146.52;100.00;63329.72;1009619;29;20472;-84
2021/07/03 00:47:48;;;;;;;11.10;7.57;;;;;;;-146.52;100.00;63329.72;998152;29;20019;-84
2021/07/03 00:48:21;;;;;;;11.15;6.97;;;;;;;-146.52;100.00;63329.72;1009885;29;20037;-85
2021/07/03 00:48:55;;;;;;;13.52;7.15;;;;;;;-146.52;100.00;63329.72;1002988;29;20026;-83
2021/07/03 00:49:28;;;;;;;12.57;7.30;;;;;;;-146.52;100.00;63329.72;1009911;29;20054;-83
2021/07/03 00:49:59;;;;;;;10.88;7.40;;;;;;;-146.52;100.00;63329.72;1010088;29;20030;-83
2021/07/03 00:50:29;;;;;;;13.38;7.80;;;;;;;-146.52;100.00;63329.72;1006120;29;20047;-83
2021/07/03 00:51:00;;;;;;;11.35;7.53;;;;;;;-146.52;100.00;63329.72;1006033;29;20089;-84
2021/07/03 00:51:31;;;;;;;11.55;8.00;;;;;;;-146.52;100.00;63329.72;1006103;29;20100;-85
2021/07/03 00:52:05;;;;;;;10.98;7.75;;;;;;;-146.52;100.00;63329.72;1009435;29;20069;-84
2021/07/03 00:52:39;;;;;;;10.70;7.07;;;;;;;-146.52;100.00;63329.72;1013483;29;20041;-84
2021/07/03 00:53:10;;;;;;;13.27;7.43;;;;;;;-146.52;100.00;63329.72;1009811;29;20025;-83
2021/07/03 00:53:40;;;;;;;9.90;7.10;;;;;;;-146.52;100.00;63329.72;1005446;29;20026;-82
2021/07/03 00:54:11;;;;;;;10.30;6.80;;;;;;;-146.52;100.00;63329.72;1004613;29;20018;-84
2021/07/03 00:54:44;;;;;;;12.18;7.78;;;;;;;-146.52;100.00;63329.72;1012584;29;20077;-83
2021/07/03 00:55:16;;;;;;;11.00;7.53;;;;;;;-146.52;100.00;63329.72;1004844;29;20018;-83
2021/07/03 00:55:46;;;;;;;9.70;7.25;;;;;;;-146.52;100.00;63329.72;1001211;29;20042;-82
2021/07/03 00:56:17;;;;;;;11.77;7.72;;;;;;;-146.52;100.00;63329.72;1004427;29;20022;-83
2021/07/03 00:56:48;;;;;;;10.93;8.23;;;;;;;-146.52;100.00;63329.72;1004846;29;20098;-83
2021/07/03 00:57:19;;;;;;;10.50;7.72;;;;;;;-146.52;100.00;63329.72;1004480;29;20351;-84
2021/07/03 00:57:50;;;;;;;11.77;7.28;;;;;;;-146.52;100.00;63329.72;1000818;29;20048;-83
2021/07/03 00:58:20;;;;;;;9.57;7.03;;;;;;;-146.52;100.00;63329.72;997060;29;20082;-85
2021/07/03 00:58:51;;;;;;;10.20;6.60;;;;;;;-146.52;100.00;63329.72;1003878;29;20113;-83
2021/07/03 00:59:22;;;;;;;8.95;7.47;;;;;;;-146.52;100.00;63329.72;1004450;29;20018;-83
2021/07/03 00:59:52;;;;;;;10.15;7.10;;;;;;;-146.52;100.00;63329.72;996637;29;20023;-84
2021/07/03 01:00:23;;;;;;;10.00;7.10;;;;;;;-146.52;100.00;63329.72;1004716;29;20079;-83
2021/07/03 01:00:54;;;;;;;11.50;7.75;;;;;;;-146.52;100.00;63329.72;993698;29;20023;-83
2021/07/03 01:01:24;;;;;;;10.45;7.57;;;;;;;-146.52;100.00;63329.72;1008787;29;20117;-84
2021/07/03 01:01:55;;;;;;;9.85;7.45;;;;;;;-146.52;100.00;63329.72;1008546;29;20544;-83
2021/07/03 01:02:25;;;;;;;12.13;8.10;;;;;;;-146.52;100.00;63329.72;1004486;29;20026;-84
2021/07/03 01:02:56;;;;;;;9.57;7.07;;;;;;;-146.52;100.00;63329.72;1000866;29;20032;-82
2021/07/03 01:03:26;;;;;;;12.00;7.53;;;;;;;-146.52;100.00;63329.72;1008153;29;20121;-84
2021/07/03 01:03:57;;;;;;;10.82;7.22;;;;;;;-146.52;100.00;63329.72;1008412;29;20124;-85
2021/07/03 01:04:28;;;;;;;11.02;7.45;;;;;;;-146.52;100.00;63329.72;1000387;29;20103;-83
2021/07/03 01:04:58;;;;;;;9.45;7.00;;;;;;;-146.52;100.00;63329.72;1004220;29;20026;-82
2021/07/03 01:05:29;;;;;;;10.60;7.55;;;;;;;-146.52;100.00;63329.72;1000520;29;20030;-82
2021/07/03 01:06:00;;;;;;;11.48;8.43;;;;;;;-146.52;100.00;63329.72;1007657;29;20073;-84
2021/07/03 01:06:30;;;;;;;9.70;7.38;;;;;;;-146.52;100.00;63329.72;1011746;29;20033;-83
2021/07/03 01:07:02;;;;;;;9.55;7.05;;;;;;;-146.52;100.00;63329.72;1005038;29;20101;-84
2021/07/03 01:07:33;;;;;;;10.55;8.18;;;;;;;-146.52;100.00;63329.72;1008702;29;20025;-82
2021/07/03 01:08:04;;;;;;;10.05;7.28;;;;;;;-146.52;100.00;63329.72;1008179;29;20029;-83
2021/07/03 01:08:35;;;;;;;12.90;8.18;;;;;;;-146.52;100.00;63329.72;1001376;29;20053;-83
2021/07/03 01:09:05;;;;;;;13.75;7.72;;;;;;;-146.52;100.00;63329.72;1012879;29;20084;-84
2021/07/03 01:09:36;;;;;;;13.25;7.65;;;;;;;-146.52;100.00;63329.72;1005897;29;20089;-86
2021/07/03 01:10:22;;;;;;;10.10;7.38;;;;;;;-146.52;100.00;63329.72;1005810;29;20028;-84
2021/07/03 01:10:53;;;;;;;10.63;7.70;;;;;;;-146.52;100.00;63329.72;1002383;29;20030;-86
2021/07/03 01:11:28;;;;;;;13.02;7.68;;;;;;;-146.52;100.00;63329.72;1002142;29;20036;-85
2021/07/03 01:11:59;;;;;;;11.93;7.80;;;;;;;-146.52;100.00;63329.72;1006040;29;20014;-86
2021/07/03 01:12:30;;;;;;;9.98;7.60;;;;;;;-146.52;100.00;63329.72;1006053;29;20010;-85
2021/07/03 01:13:01;;;;;;;9.90;7.30;;;;;;;-146.52;100.00;63329.72;994725;29;20020;-85
2021/07/03 01:13:31;;;;;;;10.40;7.25;;;;;;;-146.52;100.00;63329.72;1002098;29;20014;-83
2021/07/03 01:14:02;;;;;;;11.75;7.75;;;;;;;-146.52;100.00;63329.72;1001780;29;20030;-83
2021/07/03 01:14:33;;;;;;;11.25;7.72;;;;;;;-146.52;100.00;63329.72;1000745;29;20037;-84
2021/07/03 01:15:04;;;;;;;13.73;7.68;;;;;;;-146.52;100.00;63329.72;1005004;29;20102;-84
2021/07/03 01:15:34;;;;;;;12.38;6.80;;;;;;;-146.52;100.00;63329.72;1004193;29;20545;-85
2021/07/03 01:16:05;;;;;;;10.50;7.20;;;;;;;-146.52;100.00;63329.72;999809;29;20041;-86
2021/07/03 01:16:36;;;;;;;10.40;7.38;;;;;;;-146.52;100.00;63329.72;1010638;29;20117;-84
2021/07/03 01:17:06;;;;;;;12.70;7.85;;;;;;;-146.52;100.00;63329.72;1006424;29;20515;-84
2021/07/03 01:17:37;;;;;;;13.55;7.40;;;;;;;-146.52;100.00;63329.72;995140;29;20057;-85
2021/07/03 01:18:07;;;;;;;10.05;7.28;;;;;;;-146.52;100.00;63329.72;998632;29;20038;-85
2021/07/03 01:18:38;;;;;;;10.52;7.35;;;;;;;-146.52;100.00;63329.72;1007905;29;20033;-85
2021/07/03 01:19:09;;;;;;;11.40;7.22;;;;;;;-146.52;100.00;63329.72;996124;29;20027;-84
2021/07/03 01:19:39;;;;;;;11.25;7.95;;;;;;;-146.52;100.00;63329.72;999936;29;20030;-84
2021/07/03 01:20:11;;;;;;;9.30;7.03;;;;;;;-146.52;100.00;63329.72;998713;29;20027;-86
2021/07/03 01:20:41;;;;;;;11.90;7.70;;;;;;;-146.52;100.00;63329.72;999609;29;20022;-85
2021/07/03 01:21:14;;;;;;;9.65;7.13;;;;;;;-146.52;100.00;63329.72;1009375;29;20013;-85
2021/07/03 01:21:47;;;;;;;11.38;8.00;;;;;;;-146.52;100.00;63329.72;1005903;29;20061;-84
2021/07/03 01:22:18;;;;;;;9.63;7.53;;;;;;;-146.52;100.00;63329.72;1002314;29;20018;-88
2021/07/03 01:22:49;;;;;;;14.35;6.93;;;;;;;-146.52;100.00;63329.72;1002197;29;20018;-88
2021/07/03 01:23:21;;;;;;;11.25;7.13;;;;;;;-146.52;100.00;63329.72;998316;29;20025;-85
2021/07/03 01:23:51;;;;;;;10.93;7.63;;;;;;;-146.52;100.00;63329.72;1001034;29;20106;-87
2021/07/03 01:24:23;;;;;;;12.32;7.57;;;;;;;-146.52;100.00;63329.72;1005726;29;20040;-87
2021/07/03 01:24:54;;;;;;;11.82;7.97;;;;;;;-146.52;100.00;63329.72;1002203;29;20021;-86
2021/07/03 01:25:24;;;;;;;9.60;7.60;;;;;;;-146.52;100.00;63329.72;1005804;29;20018;-86
2021/07/03 01:25:56;;;;;;;10.32;7.32;;;;;;;-146.52;100.00;63329.72;1005689;29;20074;-86
2021/07/03 01:26:27;;;;;;;10.95;7.72;;;;;;;-146.52;100.00;63329.72;1001763;29;20018;-87
2021/07/03 01:26:58;;;;;;;10.75;7.25;;;;;;;-146.52;100.00;63329.72;994532;29;20079;-86
2021/07/03 01:27:28;;;;;;;10.57;6.95;;;;;;;-146.52;100.00;63329.72;998291;29;20097;-87
2021/07/03 01:28:01;;;;;;;10.85;7.50;;;;;;;-146.52;100.00;63329.72;997987;29;20023;-88
2021/07/03 01:28:31;;;;;;;11.40;8.02;;;;;;;-146.52;100.00;63329.72;1005928;29;20010;-85
2021/07/03 01:29:02;;;;;;;10.40;7.75;;;;;;;-146.52;100.00;63329.72;1005985;29;20030;-86
2021/07/03 01:29:33;;;;;;;10.75;7.28;;;;;;;-146.52;100.00;63329.72;1005815;29;20089;-86
2021/07/03 01:30:06;;;;;;;9.02;6.88;;;;;;;-146.52;100.00;63329.72;1013627;29;20013;-85
2021/07/03 01:30:38;;;;;;;11.30;7.43;;;;;;;-146.52;100.00;63329.72;1002148;29;20116;-84
2021/07/03 01:31:10;;;;;;;12.40;7.78;;;;;;;-146.52;100.00;63329.72;1009653;29;20025;-85
2021/07/03 01:31:42;;;;;;;11.95;7.97;;;;;;;-146.52;100.00;63329.72;1005909;29;20014;-83
2021/07/03 01:32:13;;;;;;;13.75;7.65;;;;;;;-146.52;100.00;63329.72;1005927;29;20014;-84
2021/07/03 01:32:43;;;;;;;11.20;7.45;;;;;;;-146.52;100.00;63329.72;1002014;29;20022;-83
2021/07/03 01:33:14;;;;;;;10.70;7.68;;;;;;;-146.52;100.00;63329.72;1009478;29;20072;-87
2021/07/03 01:33:45;;;;;;;11.88;7.60;;;;;;;-146.52;100.00;63329.72;1005718;29;20029;-84
2021/07/03 01:34:16;;;;;;;10.48;7.75;;;;;;;-146.52;100.00;63329.72;1013390;29;20084;-85
2021/07/03 01:34:46;;;;;;;10.90;7.60;;;;;;;-146.52;100.00;63329.72;1009556;29;20097;-85
2021/07/03 01:35:17;;;;;;;10.02;7.40;;;;;;;-146.52;100.00;63329.72;1008824;29;20053;-85
2021/07/03 01:35:48;;;;;;;8.95;6.95;;;;;;;-146.52;100.00;63329.72;1007214;29;20097;-85
2021/07/03 01:36:18;;;;;;;11.25;7.30;;;;;;;-146.52;100.00;63329.72;1002438;29;20085;-85
2021/07/03 01:36:49;;;;;;;10.18;7.47;;;;;;;-146.52;100.00;63329.72;1009525;29;20505;-84
2021/07/03 01:37:19;;;;;;;10.40;6.97;;;;;;;-146.52;100.00;63329.72;1005997;29;20021;-86
2021/07/03 01:37:50;;;;;;;9.60;7.63;;;;;;;-146.52;100.00;63329.72;998519;29;20194;-86
2021/07/03 01:38:22;;;;;;;11.32;7.20;;;;;;;-146.52;100.00;63329.72;1002481;29;20026;-84
2021/07/03 01:38:53;;;;;;;10.98;7.80;;;;;;;-146.52;100.00;63329.72;1002934;29;20021;-85
2021/07/03 01:39:24;;;;;;;13.43;8.30;;;;;;;-146.52;100.00;63329.72;1007112;29;20109;-86
2021/07/03 01:39:54;;;;;;;9.75;7.75;;;;;;;-146.52;100.00;63329.72;1008676;29;20022;-83
2021/07/03 01:40:25;;;;;;;12.98;8.60;;;;;;;-146.52;100.00;63329.72;1001541;29;20116;-83
2021/07/03 01:40:55;;;;;;;11.63;8.02;;;;;;;-146.52;100.00;63329.72;1005229;29;20022;-82
2021/07/03 01:41:26;;;;;;;10.77;8.07;;;;;;;-146.52;100.00;63329.72;1005034;29;20037;-82
2021/07/03 01:41:57;;;;;;;10.75;7.82;;;;;;;-146.52;100.00;63329.72;1008829;29;20070;-82
2021/07/03 01:42:28;;;;;;;10.70;7.38;;;;;;;-146.52;100.00;63329.72;1009174;29;20028;-83
2021/07/03 01:42:58;;;;;;;11.68;7.28;;;;;;;-146.52;100.00;63329.72;1005276;29;20038;-83
2021/07/03 01:43:29;;;;;;;14.43;8.52;;;;;;;-146.52;100.00;63329.72;1004719;29;20101;-83
2021/07/03 01:43:59;;;;;;;10.75;7.32;;;;;;;-146.52;100.00;63329.72;1010928;29;20096;-87
2021/07/03 01:44:30;;;;;;;13.05;7.95;;;;;;;-146.52;100.00;63329.72;1006342;29;20033;-88
2021/07/03 01:45:01;;;;;;;10.82;8.20;;;;;;;-146.52;100.00;63329.72;1006008;29;20100;-86
2021/07/03 01:45:31;;;;;;;9.13;7.22;;;;;;;-146.52;100.00;63329.72;1001924;29;20042;-88
2021/07/03 01:46:02;;;;;;;14.50;7.95;;;;;;;-146.52;100.00;63329.72;998370;29;20030;-88
2021/07/03 01:46:33;;;;;;;9.65;7.10;;;;;;;-146.52;100.00;63329.72;1002233;29;20038;-87
2021/07/03 01:47:05;;;;;;;9.55;7.13;;;;;;;-146.52;100.00;63329.72;998021;29;20050;-89
2021/07/03 01:47:45;;;;;;;11.75;7.22;;;;;;;-146.52;100.00;63329.72;1001708;29;20045;-84
2021/07/03 01:48:29;;;;;;;11.52;7.40;;;;;;;-146.52;100.00;63329.72;997809;29;20069;-86
2021/07/03 01:49:01;;;;;;;14.48;7.60;;;;;;;-146.52;100.00;63329.72;1001869;29;20560;-85
2021/07/03 01:49:43;;;;;;;13.48;7.72;;;;;;;-146.52;100.00;63329.72;994743;29;20065;-84
2021/07/03 01:50:14;;;;;;;10.27;7.65;;;;;;;-146.52;100.00;63329.72;994267;29;20163;-86
2021/07/03 01:50:44;;;;;;;11.30;7.60;;;;;;;-146.52;100.00;63329.72;1005975;29;20503;-85
2021/07/03 01:51:15;;;;;;;10.98;7.13;;;;;;;-146.52;100.00;63329.72;1006704;29;20025;-84
2021/07/03 01:51:46;;;;;;;10.85;6.90;;;;;;;-146.52;100.00;63329.72;1006627;29;20030;-85
2021/07/03 01:52:17;;;;;;;12.82;7.45;;;;;;;-146.52;100.00;63329.72;1003763;29;20127;-84
2021/07/03 01:52:50;;;;;;;10.23;7.22;;;;;;;-146.52;100.00;63329.72;999741;29;20023;-85
2021/07/03 01:53:21;;;;;;;12.90;7.60;;;;;;;-146.52;100.00;63329.72;995317;29;20033;-83
2021/07/03 01:53:52;;;;;;;11.57;7.68;;;;;;;-146.52;100.00;63329.72;1003271;29;20155;-82
2021/07/03 01:54:23;;;;;;;10.48;7.75;;;;;;;-146.52;100.00;63329.72;1005665;29;20040;-83
2021/07/03 01:54:53;;;;;;;9.93;7.57;;;;;;;-146.52;100.00;63329.72;1001836;29;20037;-82
2021/07/03 01:55:24;;;;;;;11.18;7.75;;;;;;;-146.52;100.00;63329.72;1002419;29;20030;-85
2021/07/03 01:55:55;;;;;;;10.18;7.68;;;;;;;-146.52;100.00;63329.72;999685;29;20117;-83
2021/07/03 01:56:25;;;;;;;12.25;7.82;;;;;;;-146.52;100.00;63329.72;1008393;29;20053;-82
2021/07/03 01:56:59;;;;;;;10.05;7.40;;;;;;;-146.52;100.00;63329.72;1008700;29;20033;-83
2021/07/03 01:57:29;;;;;;;11.23;8.18;;;;;;;-146.52;100.00;63329.72;1016859;29;20035;-84
2021/07/03 01:58:00;;;;;;;13.18;8.02;;;;;;;-146.52;100.00;63329.72;1013122;29;20024;-84
2021/07/03 01:58:31;;;;;;;11.32;7.40;;;;;;;-146.52;100.00;63329.72;1005684;29;20089;-86
2021/07/03 01:59:02;;;;;;;12.80;7.55;;;;;;;-146.52;100.00;63329.72;1009514;29;20044;-83
2021/07/03 01:59:32;;;;;;;9.50;7.03;;;;;;;-146.52;100.00;63329.72;1000147;29;20037;-84
2021/07/03 02:00:06;;;;;;;9.65;7.05;;;;;;;-146.52;100.00;63329.72;1003583;29;20061;-84
2021/07/03 02:00:37;;;;;;;10.75;6.88;;;;;;;-146.52;100.00;63329.72;1003347;29;20048;-84
2021/07/03 02:01:07;;;;;;;10.00;7.10;;;;;;;-146.52;100.00;63329.72;998885;29;20110;-86
2021/07/03 02:01:38;;;;;;;9.38;6.95;;;;;;;-146.52;100.00;63329.72;1002684;29;20026;-85
2021/07/03 02:02:09;;;;;;;9.43;7.38;;;;;;;-146.52;100.00;63329.72;992018;29;20019;-88
2021/07/03 02:02:40;;;;;;;13.23;8.20;;;;;;;-146.52;100.00;63329.72;1001681;29;20032;-87
2021/07/03 02:03:10;;;;;;;12.50;7.97;;;;;;;-146.52;100.00;63329.72;994560;29;20042;-87
2021/07/03 02:03:41;;;;;;;9.40;6.82;;;;;;;-146.52;100.00;63329.72;998284;29;20390;-86
2021/07/03 02:04:12;;;;;;;12.48;7.72;;;;;;;-146.52;100.00;63329.72;1005660;29;20090;-88
2021/07/03 02:04:42;;;;;;;11.07;7.55;;;;;;;-146.52;100.00;63329.72;1005660;29;20101;-87
2021/07/03 02:05:13;;;;;;;8.70;6.88;;;;;;;-146.52;100.00;63329.72;1005648;29;20112;-87
2021/07/03 02:05:44;;;;;;;13.05;8.07;;;;;;;-146.52;100.00;63329.72;1001937;29;20021;-87
2021/07/03 02:06:15;;;;;;;9.82;6.97;;;;;;;-146.52;100.00;63329.72;998576;29;20069;-87
2021/07/03 02:06:46;;;;;;;12.23;7.47;;;;;;;-146.52;100.00;63329.72;1001670;29;20114;-85
2021/07/03 02:07:16;;;;;;;10.93;7.18;;;;;;;-146.52;100.00;63329.72;1002267;29;20025;-88
2021/07/03 02:07:47;;;;;;;11.75;7.60;;;;;;;-146.52;100.00;63329.72;992241;29;20022;-87
2021/07/03 02:08:18;;;;;;;12.00;7.30;;;;;;;-146.52;100.00;63329.72;996832;29;20027;-87
2021/07/03 02:08:49;;;;;;;11.55;7.50;;;;;;;-146.52;100.00;63329.72;1005148;29;20045;-86
2021/07/03 02:09:20;;;;;;;11.25;6.97;;;;;;;-146.52;100.00;63329.72;1005495;29;20040;-87
2021/07/03 02:09:50;;;;;;;10.10;7.53;;;;;;;-146.52;100.00;63329.72;1001515;29;20023;-85
2021/07/03 02:10:21;;;;;;;11.45;7.78;;;;;;;-146.52;100.00;63329.72;1003202;29;20026;-86
2021/07/03 02:10:52;;;;;;;14.07;7.55;;;;;;;-146.52;100.00;63329.72;994968;29;20106;-84
2021/07/03 02:11:22;;;;;;;13.32;7.90;;;;;;;-146.52;100.00;63329.72;998245;29;20102;-85
2021/07/03 02:11:53;;;;;;;13.10;8.05;;;;;;;-146.52;100.00;63329.72;1002457;29;20025;-85
2021/07/03 02:12:24;;;;;;;12.10;8.40;;;;;;;-146.52;100.00;63329.72;1002361;29;20030;-85
2021/07/03 02:12:54;;;;;;;11.77;7.65;;;;;;;-146.52;100.00;63329.72;998621;29;20026;-84
2021/07/03 02:13:26;;;;;;;11.82;7.90;;;;;;;-146.52;100.00;63329.72;998335;29;20059;-84
2021/07/03 02:13:56;;;;;;;12.55;7.70;;;;;;;-146.52;100.00;63329.72;1001956;29;20062;-84
2021/07/03 02:14:27;;;;;;;10.18;7.03;;;;;;;-146.52;100.00;63329.72;998242;29;20074;-84
2021/07/03 02:14:57;;;;;;;12.73;8.40;;;;;;;-146.52;100.00;63329.72;997746;29;20114;-84
2021/07/03 02:15:28;;;;;;;11.20;7.90;;;;;;;-146.52;100.00;63329.72;1001695;29;20453;-85
2021/07/03 02:15:59;;;;;;;11.82;7.43;;;;;;;-146.52;100.00;63329.72;1001606;29;20112;-83
2021/07/03 02:16:29;;;;;;;12.18;7.70;;;;;;;-146.52;100.00;63329.72;1001933;29;20044;-84
2021/07/03 02:17:00;;;;;;;12.43;7.53;;;;;;;-146.52;100.00;63329.72;994293;29;20107;-83
2021/07/03 02:17:30;;;;;;;11.85;7.55;;;;;;;-146.52;100.00;63329.72;998103;29;20416;-84
2021/07/03 02:18:01;;;;;;;11.75;7.85;;;;;;;-146.52;100.00;63329.72;994327;29;20026;-84
2021/07/03 02:18:32;;;;;;;11.63;7.32;;;;;;;-146.52;100.00;63329.72;998399;29;20042;-84
2021/07/03 02:19:04;;;;;;;12.27;8.13;;;;;;;-146.52;100.00;63329.72;1006053;29;20595;-85
2021/07/03 02:19:34;;;;;;;10.25;7.93;;;;;;;-146.52;100.00;63329.72;1002416;29;20026;-86
2021/07/03 02:20:05;;;;;;;9.45;7.15;;;;;;;-146.52;100.00;63329.72;1002066;29;20124;-83
2021/07/03 02:20:36;;;;;;;11.63;7.82;;;;;;;-146.52;100.00;63329.72;1005964;29;20468;-84
2021/07/03 02:21:06;;;;;;;10.95;7.65;;;;;;;-146.52;100.00;63329.72;1005951;29;20108;-83